sensor_id;sensor_type;location;lat;lon;timestamp;P1;durP1;ratioP1;P2;durP2;ratioP2
9559;SDS011;4818;50.860;4.648;2023-04-24T00:01:08;17.70;;;11.18;;
9559;SDS011;4818;50.860;4.648;2023-04-24T00:03:35;19.30;;;9.77;;
9559;SDS011;4818;50.860;4.648;2023-04-24T00:06:02;19.88;;;10.02;;
9559;SDS011;4818;50.860;4.648;2023-04-24T00:08:28;19.25;;;10.52;;
9559;SDS011;4818;50.860;4.648;2023-04-24T00:10:54;17.50;;;9.90;;
9559;SDS011;4818;50.860;4.648;2023-04-24T00:13:20;21.33;;;10.27;;
9559;SDS011;4818;50.860;4.648;2023-04-24T00:15:46;17.60;;;10.05;;
9559;SDS011;4818;50.860;4.648;2023-04-24T00:18:13;16.77;;;10.13;;
9559;SDS011;4818;50.860;4.648;2023-04-24T00:20:39;20.83;;;9.50;;
9559;SDS011;4818;50.860;4.648;2023-04-24T00:23:05;17.25;;;10.35;;
9559;SDS011;4818;50.860;4.648;2023-04-24T00:25:31;18.02;;;9.40;;
9559;SDS011;4818;50.860;4.648;2023-04-24T00:27:57;19.67;;;9.93;;
9559;SDS011;4818;50.860;4.648;2023-04-24T00:30:23;18.73;;;9.05;;
9559;SDS011;4818;50.860;4.648;2023-04-24T00:32:49;21.90;;;9.52;;
9559;SDS011;4818;50.860;4.648;2023-04-24T00:35:16;21.85;;;9.95;;
9559;SDS011;4818;50.860;4.648;2023-04-24T00:37:42;20.33;;;9.38;;
9559;SDS011;4818;50.860;4.648;2023-04-24T00:40:08;21.63;;;10.13;;
9559;SDS011;4818;50.860;4.648;2023-04-24T00:42:37;21.93;;;10.43;;
9559;SDS011;4818;50.860;4.648;2023-04-24T00:45:03;20.23;;;9.88;;
9559;SDS011;4818;50.860;4.648;2023-04-24T00:47:30;23.55;;;11.52;;
9559;SDS011;4818;50.860;4.648;2023-04-24T00:49:56;19.95;;;9.93;;
9559;SDS011;4818;50.860;4.648;2023-04-24T00:52:22;22.77;;;11.20;;
9559;SDS011;4818;50.860;4.648;2023-04-24T00:54:49;17.38;;;9.98;;
9559;SDS011;4818;50.860;4.648;2023-04-24T00:57:15;21.88;;;10.15;;
9559;SDS011;4818;50.860;4.648;2023-04-24T00:59:42;18.85;;;9.70;;
9559;SDS011;4818;50.860;4.648;2023-04-24T01:02:09;20.95;;;10.57;;
9559;SDS011;4818;50.860;4.648;2023-04-24T01:04:36;24.13;;;11.52;;
9559;SDS011;4818;50.860;4.648;2023-04-24T01:07:02;24.73;;;11.48;;
9559;SDS011;4818;50.860;4.648;2023-04-24T01:09:29;27.38;;;12.40;;
9559;SDS011;4818;50.860;4.648;2023-04-24T01:11:55;28.77;;;11.38;;
9559;SDS011;4818;50.860;4.648;2023-04-24T01:14:22;21.02;;;9.98;;
9559;SDS011;4818;50.860;4.648;2023-04-24T01:16:48;16.75;;;9.63;;
9559;SDS011;4818;50.860;4.648;2023-04-24T01:19:14;19.95;;;10.77;;
9559;SDS011;4818;50.860;4.648;2023-04-24T01:21:41;19.20;;;9.55;;
9559;SDS011;4818;50.860;4.648;2023-04-24T01:24:08;23.75;;;10.68;;
9559;SDS011;4818;50.860;4.648;2023-04-24T01:26:34;17.63;;;9.43;;
9559;SDS011;4818;50.860;4.648;2023-04-24T01:29:00;19.33;;;9.52;;
9559;SDS011;4818;50.860;4.648;2023-04-24T01:31:26;14.65;;;8.77;;
9559;SDS011;4818;50.860;4.648;2023-04-24T01:33:53;16.55;;;8.35;;
9559;SDS011;4818;50.860;4.648;2023-04-24T01:36:19;14.93;;;8.93;;
9559;SDS011;4818;50.860;4.648;2023-04-24T01:38:46;19.08;;;8.48;;
9559;SDS011;4818;50.860;4.648;2023-04-24T01:41:13;17.17;;;8.52;;
9559;SDS011;4818;50.860;4.648;2023-04-24T01:43:39;20.40;;;10.80;;
9559;SDS011;4818;50.860;4.648;2023-04-24T01:46:05;15.77;;;9.75;;
9559;SDS011;4818;50.860;4.648;2023-04-24T01:48:32;17.60;;;9.73;;
9559;SDS011;4818;50.860;4.648;2023-04-24T01:50:59;17.33;;;9.30;;
9559;SDS011;4818;50.860;4.648;2023-04-24T01:53:25;14.65;;;8.98;;
9559;SDS011;4818;50.860;4.648;2023-04-24T01:55:51;14.93;;;7.93;;
9559;SDS011;4818;50.860;4.648;2023-04-24T01:58:17;15.27;;;8.27;;
9559;SDS011;4818;50.860;4.648;2023-04-24T02:00:44;25.08;;;9.15;;
9559;SDS011;4818;50.860;4.648;2023-04-24T02:03:10;14.52;;;8.55;;
9559;SDS011;4818;50.860;4.648;2023-04-24T02:05:36;18.25;;;8.50;;
9559;SDS011;4818;50.860;4.648;2023-04-24T02:08:02;15.02;;;9.50;;
9559;SDS011;4818;50.860;4.648;2023-04-24T02:10:28;15.45;;;9.90;;
9559;SDS011;4818;50.860;4.648;2023-04-24T02:12:54;14.07;;;9.07;;
9559;SDS011;4818;50.860;4.648;2023-04-24T02:15:20;17.58;;;9.50;;
9559;SDS011;4818;50.860;4.648;2023-04-24T02:17:46;13.70;;;9.48;;
9559;SDS011;4818;50.860;4.648;2023-04-24T02:20:13;16.35;;;9.52;;
9559;SDS011;4818;50.860;4.648;2023-04-24T02:22:39;20.80;;;10.68;;
9559;SDS011;4818;50.860;4.648;2023-04-24T02:25:05;21.23;;;10.55;;
9559;SDS011;4818;50.860;4.648;2023-04-24T02:27:31;13.98;;;9.43;;
9559;SDS011;4818;50.860;4.648;2023-04-24T02:30:00;18.08;;;10.45;;
9559;SDS011;4818;50.860;4.648;2023-04-24T02:32:26;19.98;;;11.52;;
9559;SDS011;4818;50.860;4.648;2023-04-24T02:34:52;17.00;;;10.75;;
9559;SDS011;4818;50.860;4.648;2023-04-24T02:37:18;18.42;;;11.15;;
9559;SDS011;4818;50.860;4.648;2023-04-24T02:39:44;23.35;;;12.32;;
9559;SDS011;4818;50.860;4.648;2023-04-24T02:42:11;19.50;;;11.25;;
9559;SDS011;4818;50.860;4.648;2023-04-24T02:44:37;21.23;;;11.43;;
9559;SDS011;4818;50.860;4.648;2023-04-24T02:47:03;18.42;;;11.23;;
9559;SDS011;4818;50.860;4.648;2023-04-24T02:49:29;16.85;;;10.68;;
9559;SDS011;4818;50.860;4.648;2023-04-24T02:51:55;18.77;;;10.48;;
9559;SDS011;4818;50.860;4.648;2023-04-24T02:54:21;21.58;;;10.90;;
9559;SDS011;4818;50.860;4.648;2023-04-24T02:56:47;21.05;;;11.65;;
9559;SDS011;4818;50.860;4.648;2023-04-24T02:59:14;16.02;;;9.48;;
9559;SDS011;4818;50.860;4.648;2023-04-24T03:01:40;17.65;;;10.52;;
9559;SDS011;4818;50.860;4.648;2023-04-24T03:04:06;18.90;;;10.73;;
9559;SDS011;4818;50.860;4.648;2023-04-24T03:06:32;18.55;;;10.45;;
9559;SDS011;4818;50.860;4.648;2023-04-24T03:09:00;17.00;;;10.10;;
9559;SDS011;4818;50.860;4.648;2023-04-24T03:11:27;15.82;;;8.60;;
9559;SDS011;4818;50.860;4.648;2023-04-24T03:13:53;15.38;;;9.52;;
9559;SDS011;4818;50.860;4.648;2023-04-24T03:16:19;17.63;;;9.48;;
9559;SDS011;4818;50.860;4.648;2023-04-24T03:18:45;12.60;;;8.38;;
9559;SDS011;4818;50.860;4.648;2023-04-24T03:21:12;17.58;;;9.70;;
9559;SDS011;4818;50.860;4.648;2023-04-24T03:23:38;17.80;;;9.23;;
9559;SDS011;4818;50.860;4.648;2023-04-24T03:26:04;15.70;;;8.60;;
9559;SDS011;4818;50.860;4.648;2023-04-24T03:28:30;12.38;;;7.85;;
9559;SDS011;4818;50.860;4.648;2023-04-24T03:30:56;16.10;;;8.40;;
9559;SDS011;4818;50.860;4.648;2023-04-24T03:33:22;12.68;;;7.53;;
9559;SDS011;4818;50.860;4.648;2023-04-24T03:35:48;16.38;;;6.93;;
9559;SDS011;4818;50.860;4.648;2023-04-24T03:38:15;15.07;;;7.78;;
9559;SDS011;4818;50.860;4.648;2023-04-24T03:40:41;15.82;;;7.70;;
9559;SDS011;4818;50.860;4.648;2023-04-24T03:43:07;18.65;;;7.57;;
9559;SDS011;4818;50.860;4.648;2023-04-24T03:45:33;14.73;;;8.13;;
9559;SDS011;4818;50.860;4.648;2023-04-24T03:47:59;13.93;;;8.02;;
9559;SDS011;4818;50.860;4.648;2023-04-24T03:50:25;13.05;;;8.15;;
9559;SDS011;4818;50.860;4.648;2023-04-24T03:52:52;12.13;;;7.63;;
9559;SDS011;4818;50.860;4.648;2023-04-24T03:55:18;12.15;;;7.25;;
9559;SDS011;4818;50.860;4.648;2023-04-24T03:57:44;11.55;;;7.53;;
9559;SDS011;4818;50.860;4.648;2023-04-24T04:00:11;13.90;;;6.28;;
9559;SDS011;4818;50.860;4.648;2023-04-24T04:02:37;11.25;;;6.60;;
9559;SDS011;4818;50.860;4.648;2023-04-24T04:05:03;8.77;;;5.90;;
9559;SDS011;4818;50.860;4.648;2023-04-24T04:07:30;10.88;;;6.70;;
9559;SDS011;4818;50.860;4.648;2023-04-24T04:09:56;10.02;;;5.72;;
9559;SDS011;4818;50.860;4.648;2023-04-24T04:12:22;10.90;;;5.35;;
9559;SDS011;4818;50.860;4.648;2023-04-24T04:14:48;7.03;;;4.22;;
9559;SDS011;4818;50.860;4.648;2023-04-24T04:17:14;10.25;;;3.97;;
9559;SDS011;4818;50.860;4.648;2023-04-24T04:19:40;8.30;;;4.30;;
9559;SDS011;4818;50.860;4.648;2023-04-24T04:22:08;8.63;;;3.72;;
9559;SDS011;4818;50.860;4.648;2023-04-24T04:24:34;8.85;;;4.93;;
9559;SDS011;4818;50.860;4.648;2023-04-24T04:27:03;12.10;;;4.70;;
9559;SDS011;4818;50.860;4.648;2023-04-24T04:29:30;10.05;;;4.97;;
9559;SDS011;4818;50.860;4.648;2023-04-24T04:31:56;8.50;;;5.30;;
9559;SDS011;4818;50.860;4.648;2023-04-24T04:34:23;9.85;;;4.63;;
9559;SDS011;4818;50.860;4.648;2023-04-24T04:36:49;7.93;;;5.28;;
9559;SDS011;4818;50.860;4.648;2023-04-24T04:39:15;7.95;;;4.65;;
9559;SDS011;4818;50.860;4.648;2023-04-24T04:41:43;11.75;;;5.25;;
9559;SDS011;4818;50.860;4.648;2023-04-24T04:44:13;9.30;;;4.70;;
9559;SDS011;4818;50.860;4.648;2023-04-24T04:46:40;8.50;;;4.82;;
9559;SDS011;4818;50.860;4.648;2023-04-24T04:49:06;11.02;;;4.82;;
9559;SDS011;4818;50.860;4.648;2023-04-24T04:51:36;11.00;;;4.78;;
9559;SDS011;4818;50.860;4.648;2023-04-24T04:54:02;6.82;;;5.00;;
9559;SDS011;4818;50.860;4.648;2023-04-24T04:56:28;6.75;;;4.90;;
9559;SDS011;4818;50.860;4.648;2023-04-24T04:58:54;8.73;;;4.72;;
9559;SDS011;4818;50.860;4.648;2023-04-24T05:01:21;9.55;;;5.38;;
9559;SDS011;4818;50.860;4.648;2023-04-24T05:03:48;8.32;;;5.25;;
9559;SDS011;4818;50.860;4.648;2023-04-24T05:06:14;9.70;;;5.40;;
9559;SDS011;4818;50.860;4.648;2023-04-24T05:08:40;10.93;;;5.70;;
9559;SDS011;4818;50.860;4.648;2023-04-24T05:11:06;10.48;;;6.63;;
9559;SDS011;4818;50.860;4.648;2023-04-24T05:13:32;13.35;;;6.75;;
9559;SDS011;4818;50.860;4.648;2023-04-24T05:15:59;14.23;;;7.82;;
9559;SDS011;4818;50.860;4.648;2023-04-24T05:18:25;12.55;;;6.88;;
9559;SDS011;4818;50.860;4.648;2023-04-24T05:20:51;12.70;;;7.28;;
9559;SDS011;4818;50.860;4.648;2023-04-24T05:23:18;13.15;;;7.35;;
9559;SDS011;4818;50.860;4.648;2023-04-24T05:25:44;14.30;;;8.38;;
9559;SDS011;4818;50.860;4.648;2023-04-24T05:28:11;15.23;;;7.85;;
9559;SDS011;4818;50.860;4.648;2023-04-24T05:30:37;16.63;;;8.05;;
9559;SDS011;4818;50.860;4.648;2023-04-24T05:33:03;18.67;;;8.25;;
9559;SDS011;4818;50.860;4.648;2023-04-24T05:35:29;14.25;;;8.13;;
9559;SDS011;4818;50.860;4.648;2023-04-24T05:37:56;23.23;;;8.30;;
9559;SDS011;4818;50.860;4.648;2023-04-24T05:40:22;17.27;;;9.48;;
9559;SDS011;4818;50.860;4.648;2023-04-24T05:42:48;23.42;;;9.73;;
9559;SDS011;4818;50.860;4.648;2023-04-24T05:45:14;16.08;;;8.68;;
9559;SDS011;4818;50.860;4.648;2023-04-24T05:47:45;14.88;;;7.95;;
9559;SDS011;4818;50.860;4.648;2023-04-24T05:50:11;16.52;;;8.25;;
9559;SDS011;4818;50.860;4.648;2023-04-24T05:52:37;18.00;;;8.10;;
9559;SDS011;4818;50.860;4.648;2023-04-24T05:55:03;25.58;;;9.18;;
9559;SDS011;4818;50.860;4.648;2023-04-24T05:57:30;17.77;;;9.15;;
9559;SDS011;4818;50.860;4.648;2023-04-24T05:59:56;21.67;;;8.50;;
9559;SDS011;4818;50.860;4.648;2023-04-24T06:02:22;26.83;;;9.70;;
9559;SDS011;4818;50.860;4.648;2023-04-24T06:04:48;20.48;;;9.68;;
9559;SDS011;4818;50.860;4.648;2023-04-24T06:07:14;21.35;;;10.30;;
9559;SDS011;4818;50.860;4.648;2023-04-24T06:09:41;22.90;;;10.18;;
9559;SDS011;4818;50.860;4.648;2023-04-24T06:12:07;24.67;;;10.05;;
9559;SDS011;4818;50.860;4.648;2023-04-24T06:14:33;19.23;;;10.20;;
9559;SDS011;4818;50.860;4.648;2023-04-24T06:17:00;20.40;;;10.60;;
9559;SDS011;4818;50.860;4.648;2023-04-24T06:19:26;22.65;;;10.20;;
9559;SDS011;4818;50.860;4.648;2023-04-24T06:21:52;21.75;;;9.52;;
9559;SDS011;4818;50.860;4.648;2023-04-24T06:24:18;21.90;;;11.20;;
9559;SDS011;4818;50.860;4.648;2023-04-24T06:26:45;26.38;;;11.80;;
9559;SDS011;4818;50.860;4.648;2023-04-24T06:29:11;25.08;;;12.80;;
9559;SDS011;4818;50.860;4.648;2023-04-24T06:31:37;22.20;;;11.35;;
9559;SDS011;4818;50.860;4.648;2023-04-24T06:34:04;24.35;;;13.02;;
9559;SDS011;4818;50.860;4.648;2023-04-24T06:36:30;26.30;;;11.43;;
9559;SDS011;4818;50.860;4.648;2023-04-24T06:38:57;28.23;;;12.13;;
9559;SDS011;4818;50.860;4.648;2023-04-24T06:41:23;22.63;;;11.57;;
9559;SDS011;4818;50.860;4.648;2023-04-24T06:43:50;25.08;;;12.43;;
9559;SDS011;4818;50.860;4.648;2023-04-24T06:46:16;20.65;;;11.85;;
9559;SDS011;4818;50.860;4.648;2023-04-24T06:48:42;25.55;;;12.05;;
9559;SDS011;4818;50.860;4.648;2023-04-24T06:51:08;25.80;;;12.50;;
9559;SDS011;4818;50.860;4.648;2023-04-24T06:53:35;28.50;;;12.57;;
9559;SDS011;4818;50.860;4.648;2023-04-24T06:56:01;26.23;;;12.85;;
9559;SDS011;4818;50.860;4.648;2023-04-24T06:58:27;26.55;;;11.85;;
9559;SDS011;4818;50.860;4.648;2023-04-24T07:00:53;25.67;;;12.77;;
9559;SDS011;4818;50.860;4.648;2023-04-24T07:03:19;26.50;;;12.43;;
9559;SDS011;4818;50.860;4.648;2023-04-24T07:05:46;28.55;;;13.55;;
9559;SDS011;4818;50.860;4.648;2023-04-24T07:08:12;26.73;;;14.13;;
9559;SDS011;4818;50.860;4.648;2023-04-24T07:10:38;26.80;;;14.20;;
9559;SDS011;4818;50.860;4.648;2023-04-24T07:13:05;31.25;;;14.20;;
9559;SDS011;4818;50.860;4.648;2023-04-24T07:15:32;29.30;;;15.60;;
9559;SDS011;4818;50.860;4.648;2023-04-24T07:17:58;26.98;;;13.13;;
9559;SDS011;4818;50.860;4.648;2023-04-24T07:20:24;28.65;;;14.15;;
9559;SDS011;4818;50.860;4.648;2023-04-24T07:22:51;35.22;;;14.85;;
9559;SDS011;4818;50.860;4.648;2023-04-24T07:25:19;29.45;;;14.70;;
9559;SDS011;4818;50.860;4.648;2023-04-24T07:27:45;31.77;;;15.00;;
9559;SDS011;4818;50.860;4.648;2023-04-24T07:30:11;34.17;;;14.90;;
9559;SDS011;4818;50.860;4.648;2023-04-24T07:32:38;36.53;;;13.70;;
9559;SDS011;4818;50.860;4.648;2023-04-24T07:35:04;30.10;;;12.13;;
9559;SDS011;4818;50.860;4.648;2023-04-24T07:37:30;28.80;;;13.85;;
9559;SDS011;4818;50.860;4.648;2023-04-24T07:39:56;30.92;;;15.77;;
9559;SDS011;4818;50.860;4.648;2023-04-24T07:42:23;28.05;;;13.50;;
9559;SDS011;4818;50.860;4.648;2023-04-24T07:44:49;25.67;;;13.10;;
9559;SDS011;4818;50.860;4.648;2023-04-24T07:47:16;24.27;;;11.98;;
9559;SDS011;4818;50.860;4.648;2023-04-24T07:49:42;26.23;;;11.40;;
9559;SDS011;4818;50.860;4.648;2023-04-24T07:52:08;25.67;;;11.48;;
9559;SDS011;4818;50.860;4.648;2023-04-24T07:54:34;20.08;;;10.43;;
9559;SDS011;4818;50.860;4.648;2023-04-24T07:57:02;28.02;;;10.77;;
9559;SDS011;4818;50.860;4.648;2023-04-24T07:59:29;19.55;;;9.77;;
9559;SDS011;4818;50.860;4.648;2023-04-24T08:01:55;19.52;;;9.48;;
9559;SDS011;4818;50.860;4.648;2023-04-24T08:04:21;28.52;;;10.73;;
9559;SDS011;4818;50.860;4.648;2023-04-24T08:06:47;25.90;;;11.27;;
9559;SDS011;4818;50.860;4.648;2023-04-24T08:09:15;26.00;;;10.73;;
9559;SDS011;4818;50.860;4.648;2023-04-24T08:11:41;33.90;;;12.20;;
9559;SDS011;4818;50.860;4.648;2023-04-24T08:14:07;24.67;;;9.18;;
9559;SDS011;4818;50.860;4.648;2023-04-24T08:16:33;17.42;;;7.30;;
9559;SDS011;4818;50.860;4.648;2023-04-24T08:18:59;23.05;;;9.00;;
9559;SDS011;4818;50.860;4.648;2023-04-24T08:21:25;21.33;;;7.85;;
9559;SDS011;4818;50.860;4.648;2023-04-24T08:23:52;18.58;;;5.85;;
9559;SDS011;4818;50.860;4.648;2023-04-24T08:26:18;15.05;;;6.20;;
9559;SDS011;4818;50.860;4.648;2023-04-24T08:28:45;22.30;;;6.25;;
9559;SDS011;4818;50.860;4.648;2023-04-24T08:31:11;10.20;;;5.65;;
9559;SDS011;4818;50.860;4.648;2023-04-24T08:33:37;20.33;;;5.22;;
9559;SDS011;4818;50.860;4.648;2023-04-24T08:36:04;17.70;;;7.13;;
9559;SDS011;4818;50.860;4.648;2023-04-24T08:38:30;15.98;;;7.35;;
9559;SDS011;4818;50.860;4.648;2023-04-24T08:40:58;22.20;;;8.77;;
9559;SDS011;4818;50.860;4.648;2023-04-24T08:43:24;15.50;;;7.22;;
9559;SDS011;4818;50.860;4.648;2023-04-24T08:45:51;16.77;;;6.00;;
9559;SDS011;4818;50.860;4.648;2023-04-24T08:48:17;20.13;;;6.55;;
9559;SDS011;4818;50.860;4.648;2023-04-24T08:50:44;17.10;;;5.13;;
9559;SDS011;4818;50.860;4.648;2023-04-24T08:53:10;15.55;;;5.75;;
9559;SDS011;4818;50.860;4.648;2023-04-24T08:55:37;15.70;;;5.25;;
9559;SDS011;4818;50.860;4.648;2023-04-24T08:58:03;19.95;;;6.65;;
9559;SDS011;4818;50.860;4.648;2023-04-24T09:00:30;16.02;;;5.05;;
9559;SDS011;4818;50.860;4.648;2023-04-24T09:02:56;13.15;;;4.72;;
9559;SDS011;4818;50.860;4.648;2023-04-24T09:05:23;16.70;;;4.80;;
9559;SDS011;4818;50.860;4.648;2023-04-24T09:07:49;11.30;;;4.13;;
9559;SDS011;4818;50.860;4.648;2023-04-24T09:10:19;16.10;;;4.35;;
9559;SDS011;4818;50.860;4.648;2023-04-24T09:12:46;16.88;;;5.45;;
9559;SDS011;4818;50.860;4.648;2023-04-24T09:15:20;15.05;;;5.07;;
9559;SDS011;4818;50.860;4.648;2023-04-24T09:17:46;14.00;;;4.28;;
9559;SDS011;4818;50.860;4.648;2023-04-24T09:20:13;13.75;;;4.95;;
9559;SDS011;4818;50.860;4.648;2023-04-24T09:22:39;9.40;;;4.25;;
9559;SDS011;4818;50.860;4.648;2023-04-24T09:25:08;11.05;;;2.97;;
9559;SDS011;4818;50.860;4.648;2023-04-24T09:27:38;14.13;;;3.08;;
9559;SDS011;4818;50.860;4.648;2023-04-24T09:30:09;8.77;;;2.33;;
9559;SDS011;4818;50.860;4.648;2023-04-24T09:32:36;6.15;;;1.95;;
9559;SDS011;4818;50.860;4.648;2023-04-24T09:35:13;7.55;;;2.40;;
9559;SDS011;4818;50.860;4.648;2023-04-24T09:37:41;14.57;;;6.32;;
9559;SDS011;4818;50.860;4.648;2023-04-24T09:42:37;11.18;;;2.80;;
9559;SDS011;4818;50.860;4.648;2023-04-24T09:45:03;10.13;;;2.33;;
9559;SDS011;4818;50.860;4.648;2023-04-24T09:47:39;11.43;;;2.55;;
9559;SDS011;4818;50.860;4.648;2023-04-24T09:50:16;8.30;;;2.72;;
9559;SDS011;4818;50.860;4.648;2023-04-24T09:52:46;9.57;;;2.80;;
9559;SDS011;4818;50.860;4.648;2023-04-24T09:55:14;10.25;;;2.08;;
9559;SDS011;4818;50.860;4.648;2023-04-24T09:57:48;12.43;;;2.30;;
9559;SDS011;4818;50.860;4.648;2023-04-24T10:00:25;11.68;;;2.85;;
9559;SDS011;4818;50.860;4.648;2023-04-24T10:02:55;16.77;;;2.20;;
9559;SDS011;4818;50.860;4.648;2023-04-24T10:05:28;8.10;;;2.20;;
9559;SDS011;4818;50.860;4.648;2023-04-24T10:07:59;12.52;;;2.65;;
9559;SDS011;4818;50.860;4.648;2023-04-24T10:10:25;10.93;;;2.53;;
9559;SDS011;4818;50.860;4.648;2023-04-24T10:12:52;8.02;;;2.90;;
9559;SDS011;4818;50.860;4.648;2023-04-24T10:15:19;8.98;;;3.05;;
9559;SDS011;4818;50.860;4.648;2023-04-24T10:17:49;7.43;;;2.42;;
9559;SDS011;4818;50.860;4.648;2023-04-24T10:20:20;11.98;;;3.17;;
9559;SDS011;4818;50.860;4.648;2023-04-24T10:22:52;6.53;;;2.53;;
9559;SDS011;4818;50.860;4.648;2023-04-24T10:25:27;4.80;;;2.05;;
9559;SDS011;4818;50.860;4.648;2023-04-24T10:27:59;4.95;;;2.20;;
9559;SDS011;4818;50.860;4.648;2023-04-24T10:30:32;10.40;;;2.30;;
9559;SDS011;4818;50.860;4.648;2023-04-24T10:33:03;9.15;;;2.53;;
9559;SDS011;4818;50.860;4.648;2023-04-24T10:35:30;9.93;;;3.40;;
9559;SDS011;4818;50.860;4.648;2023-04-24T10:37:58;13.50;;;2.00;;
9559;SDS011;4818;50.860;4.648;2023-04-24T10:40:27;8.70;;;2.50;;
9559;SDS011;4818;50.860;4.648;2023-04-24T10:42:53;8.63;;;2.55;;
9559;SDS011;4818;50.860;4.648;2023-04-24T10:45:20;8.55;;;1.75;;
9559;SDS011;4818;50.860;4.648;2023-04-24T10:47:50;4.90;;;1.58;;
9559;SDS011;4818;50.860;4.648;2023-04-24T10:50:20;7.43;;;2.10;;
9559;SDS011;4818;50.860;4.648;2023-04-24T10:52:52;8.43;;;2.00;;
9559;SDS011;4818;50.860;4.648;2023-04-24T10:55:42;4.97;;;1.75;;
9559;SDS011;4818;50.860;4.648;2023-04-24T10:58:07;10.07;;;2.85;;
9559;SDS011;4818;50.860;4.648;2023-04-24T11:00:36;14.27;;;2.50;;
9559;SDS011;4818;50.860;4.648;2023-04-24T11:03:04;5.13;;;1.90;;
9559;SDS011;4818;50.860;4.648;2023-04-24T11:05:49;7.47;;;2.83;;
9559;SDS011;4818;50.860;4.648;2023-04-24T11:08:24;8.10;;;2.65;;
9559;SDS011;4818;50.860;4.648;2023-04-24T11:10:58;11.93;;;3.00;;
9559;SDS011;4818;50.860;4.648;2023-04-24T11:13:25;7.78;;;2.40;;
9559;SDS011;4818;50.860;4.648;2023-04-24T11:18:37;8.52;;;2.15;;
9559;SDS011;4818;50.860;4.648;2023-04-24T11:21:17;7.55;;;2.45;;
9559;SDS011;4818;50.860;4.648;2023-04-24T11:23:47;14.25;;;3.30;;
9559;SDS011;4818;50.860;4.648;2023-04-24T11:26:23;10.07;;;2.22;;
9559;SDS011;4818;50.860;4.648;2023-04-24T11:28:55;9.63;;;2.63;;
9559;SDS011;4818;50.860;4.648;2023-04-24T11:31:38;3.80;;;1.90;;
9559;SDS011;4818;50.860;4.648;2023-04-24T11:34:14;9.48;;;3.58;;
9559;SDS011;4818;50.860;4.648;2023-04-24T11:36:42;10.13;;;2.80;;
9559;SDS011;4818;50.860;4.648;2023-04-24T11:39:09;8.13;;;2.92;;
9559;SDS011;4818;50.860;4.648;2023-04-24T11:41:36;9.55;;;3.05;;
9559;SDS011;4818;50.860;4.648;2023-04-24T11:44:06;9.30;;;2.50;;
9559;SDS011;4818;50.860;4.648;2023-04-24T11:46:32;8.02;;;2.30;;
9559;SDS011;4818;50.860;4.648;2023-04-24T11:49:03;4.82;;;2.40;;
9559;SDS011;4818;50.860;4.648;2023-04-24T11:51:29;7.93;;;2.97;;
9559;SDS011;4818;50.860;4.648;2023-04-24T11:53:56;6.75;;;2.75;;
9559;SDS011;4818;50.860;4.648;2023-04-24T11:56:26;8.65;;;3.45;;
9559;SDS011;4818;50.860;4.648;2023-04-24T11:58:55;9.60;;;2.50;;
9559;SDS011;4818;50.860;4.648;2023-04-24T12:01:21;4.35;;;2.28;;
9559;SDS011;4818;50.860;4.648;2023-04-24T12:03:48;5.00;;;2.50;;
9559;SDS011;4818;50.860;4.648;2023-04-24T12:06:16;4.90;;;2.55;;
9559;SDS011;4818;50.860;4.648;2023-04-24T12:08:45;4.82;;;2.13;;
9559;SDS011;4818;50.860;4.648;2023-04-24T12:11:14;5.15;;;2.50;;
9559;SDS011;4818;50.860;4.648;2023-04-24T12:13:40;8.90;;;3.15;;
9559;SDS011;4818;50.860;4.648;2023-04-24T12:16:06;11.82;;;3.63;;
9559;SDS011;4818;50.860;4.648;2023-04-24T12:18:33;5.22;;;2.80;;
9559;SDS011;4818;50.860;4.648;2023-04-24T12:23:43;6.43;;;2.97;;
9559;SDS011;4818;50.860;4.648;2023-04-24T12:26:10;7.13;;;3.30;;
9559;SDS011;4818;50.860;4.648;2023-04-24T12:28:36;10.48;;;3.25;;
9559;SDS011;4818;50.860;4.648;2023-04-24T12:31:03;5.88;;;3.03;;
9559;SDS011;4818;50.860;4.648;2023-04-24T12:33:32;6.40;;;3.22;;
9559;SDS011;4818;50.860;4.648;2023-04-24T12:35:59;11.52;;;4.68;;
9559;SDS011;4818;50.860;4.648;2023-04-24T12:38:28;13.23;;;3.70;;
9559;SDS011;4818;50.860;4.648;2023-04-24T12:41:05;9.18;;;3.80;;
9559;SDS011;4818;50.860;4.648;2023-04-24T12:43:32;7.68;;;3.58;;
9559;SDS011;4818;50.860;4.648;2023-04-24T12:45:58;7.30;;;3.05;;
9559;SDS011;4818;50.860;4.648;2023-04-24T12:48:27;13.15;;;3.15;;
9559;SDS011;4818;50.860;4.648;2023-04-24T12:50:56;5.80;;;2.65;;
9559;SDS011;4818;50.860;4.648;2023-04-24T12:53:31;7.78;;;2.65;;
9559;SDS011;4818;50.860;4.648;2023-04-24T12:55:57;6.13;;;3.63;;
9559;SDS011;4818;50.860;4.648;2023-04-24T12:58:23;12.68;;;4.25;;
9559;SDS011;4818;50.860;4.648;2023-04-24T13:00:50;11.73;;;3.20;;
9559;SDS011;4818;50.860;4.648;2023-04-24T13:03:19;9.07;;;3.47;;
9559;SDS011;4818;50.860;4.648;2023-04-24T13:05:55;7.65;;;3.00;;
9559;SDS011;4818;50.860;4.648;2023-04-24T13:08:21;6.22;;;3.00;;
9559;SDS011;4818;50.860;4.648;2023-04-24T13:10:47;7.15;;;2.00;;
9559;SDS011;4818;50.860;4.648;2023-04-24T13:13:14;7.18;;;2.30;;
9559;SDS011;4818;50.860;4.648;2023-04-24T13:15:40;6.43;;;2.28;;
9559;SDS011;4818;50.860;4.648;2023-04-24T13:18:06;5.65;;;2.10;;
9559;SDS011;4818;50.860;4.648;2023-04-24T13:20:32;5.97;;;2.28;;
9559;SDS011;4818;50.860;4.648;2023-04-24T13:23:00;7.13;;;3.25;;
9559;SDS011;4818;50.860;4.648;2023-04-24T13:25:30;6.15;;;2.00;;
9559;SDS011;4818;50.860;4.648;2023-04-24T13:28:01;5.50;;;1.58;;
9559;SDS011;4818;50.860;4.648;2023-04-24T13:30:33;4.28;;;1.23;;
9559;SDS011;4818;50.860;4.648;2023-04-24T13:33:00;2.08;;;1.40;;
9559;SDS011;4818;50.860;4.648;2023-04-24T13:35:28;7.05;;;2.08;;
9559;SDS011;4818;50.860;4.648;2023-04-24T13:37:55;4.72;;;2.00;;
9559;SDS011;4818;50.860;4.648;2023-04-24T13:40:21;7.40;;;2.05;;
9559;SDS011;4818;50.860;4.648;2023-04-24T13:42:47;4.50;;;1.40;;
9559;SDS011;4818;50.860;4.648;2023-04-24T13:45:17;4.97;;;1.40;;
9559;SDS011;4818;50.860;4.648;2023-04-24T13:47:51;3.65;;;1.02;;
9559;SDS011;4818;50.860;4.648;2023-04-24T13:50:19;10.00;;;1.27;;
9559;SDS011;4818;50.860;4.648;2023-04-24T13:52:45;4.88;;;0.95;;
9559;SDS011;4818;50.860;4.648;2023-04-24T13:55:11;5.57;;;0.98;;
9559;SDS011;4818;50.860;4.648;2023-04-24T13:57:37;3.17;;;0.98;;
9559;SDS011;4818;50.860;4.648;2023-04-24T14:00:04;4.15;;;1.00;;
9559;SDS011;4818;50.860;4.648;2023-04-24T14:02:35;2.85;;;0.98;;
9559;SDS011;4818;50.860;4.648;2023-04-24T14:05:02;5.70;;;1.67;;
9559;SDS011;4818;50.860;4.648;2023-04-24T14:07:31;9.13;;;1.42;;
9559;SDS011;4818;50.860;4.648;2023-04-24T14:10:00;5.88;;;1.52;;
9559;SDS011;4818;50.860;4.648;2023-04-24T14:12:26;7.22;;;1.88;;
9559;SDS011;4818;50.860;4.648;2023-04-24T14:14:55;6.72;;;1.65;;
9559;SDS011;4818;50.860;4.648;2023-04-24T14:17:21;3.72;;;0.85;;
9559;SDS011;4818;50.860;4.648;2023-04-24T14:19:50;8.50;;;1.10;;
9559;SDS011;4818;50.860;4.648;2023-04-24T14:22:17;3.97;;;1.55;;
9559;SDS011;4818;50.860;4.648;2023-04-24T14:24:43;3.42;;;1.48;;
9559;SDS011;4818;50.860;4.648;2023-04-24T14:27:09;5.72;;;1.65;;
9559;SDS011;4818;50.860;4.648;2023-04-24T14:29:35;5.55;;;0.82;;
9559;SDS011;4818;50.860;4.648;2023-04-24T14:32:04;4.95;;;0.82;;
9559;SDS011;4818;50.860;4.648;2023-04-24T14:34:34;3.17;;;1.23;;
9559;SDS011;4818;50.860;4.648;2023-04-24T14:37:00;6.72;;;1.48;;
9559;SDS011;4818;50.860;4.648;2023-04-24T14:39:27;4.05;;;0.88;;
9559;SDS011;4818;50.860;4.648;2023-04-24T14:41:53;4.07;;;0.80;;
9559;SDS011;4818;50.860;4.648;2023-04-24T14:44:20;5.97;;;0.90;;
9559;SDS011;4818;50.860;4.648;2023-04-24T14:46:49;5.88;;;1.10;;
9559;SDS011;4818;50.860;4.648;2023-04-24T14:49:18;4.30;;;0.88;;
9559;SDS011;4818;50.860;4.648;2023-04-24T14:51:45;3.92;;;0.73;;
9559;SDS011;4818;50.860;4.648;2023-04-24T14:54:11;6.65;;;0.93;;
9559;SDS011;4818;50.860;4.648;2023-04-24T14:56:38;5.60;;;1.25;;
9559;SDS011;4818;50.860;4.648;2023-04-24T14:59:05;5.47;;;0.90;;
9559;SDS011;4818;50.860;4.648;2023-04-24T15:01:34;3.78;;;1.17;;
9559;SDS011;4818;50.860;4.648;2023-04-24T15:04:00;5.20;;;0.93;;
9559;SDS011;4818;50.860;4.648;2023-04-24T15:06:29;5.75;;;1.17;;
9559;SDS011;4818;50.860;4.648;2023-04-24T15:08:57;6.22;;;1.80;;
9559;SDS011;4818;50.860;4.648;2023-04-24T15:11:23;3.33;;;0.65;;